Time;durP1;ratioP1;P1;durP2;ratioP2;P2;SDS_P1;SDS_P2;PMS_P1;PMS_P2;Temp;Humidity;BMP_temperature;BMP_pressure;BME280_temperature;BME280_humidity;BME280_pressure;Samples;Min_cycle;Max_cycle;Signal;HPM_P1;HPM_P2
2023/07/12 00:01:04;;;;;;;;;;;17.70;99.90;;;;;;6279854;22;19899;-83
2023/07/12 00:03:30;;;;;;;;;;;17.70;99.90;;;;;;6279978;22;20009;-83
2023/07/12 00:05:56;;;;;;;;;;;17.80;99.90;;;;;;6254272;22;19960;-83
2023/07/12 00:08:46;;;;;;;;;;;17.70;99.90;;;;;;6254029;22;20318;-82
2023/07/12 00:11:17;;;;;;;;;;;17.70;99.90;;;;;;6305616;22;20319;-83
2023/07/12 00:13:43;;;;;;;;;;;17.70;99.90;;;;;;6254233;22;19911;-83
2023/07/12 00:16:15;;;;;;;;;;;17.70;99.90;;;;;;6253836;22;19982;-83
2023/07/12 00:18:44;;;;;;;;;;;17.70;99.90;;;;;;6280417;22;19903;-83
2023/07/12 00:21:11;;;;;;;;;;;17.60;99.90;;;;;;6279634;22;19956;-83
2023/07/12 00:23:38;;;;;;;;;;;17.60;99.90;;;;;;6279907;22;20229;-83
2023/07/12 00:26:11;;;;;;;;;;;17.70;99.90;;;;;;6254685;22;19904;-83
2023/07/12 00:28:37;;;;;;;;;;;17.70;99.90;;;;;;6279653;22;20315;-83
2023/07/12 00:31:02;;;;;;;;;;;17.60;99.90;;;;;;6254188;22;19906;-83
2023/07/12 00:33:28;;;;;;;;;;;17.50;99.90;;;;;;6307377;22;19968;-83
2023/07/12 00:35:54;;;;;;;;;;;17.60;99.90;;;;;;6280178;22;19907;-83
2023/07/12 00:38:21;;;;;;;;;;;17.60;99.90;;;;;;6254156;22;19902;-83
2023/07/12 00:41:06;;;;;;;;;;;17.60;99.90;;;;;;6254662;22;20208;-83
2023/07/12 00:43:34;;;;;;;;;;;17.60;99.90;;;;;;6306023;22;19953;-83
2023/07/12 00:46:00;;;;;;;;;;;17.70;99.90;;;;;;6305794;22;20382;-83
2023/07/12 00:48:26;;;;;;;;;;;17.70;99.90;;;;;;6254109;22;19929;-83
2023/07/12 00:50:52;;;;;;;;;;;17.80;99.90;;;;;;6305103;22;20044;-83
2023/07/12 00:53:19;;;;;;;;;;;17.80;99.90;;;;;;6279621;22;19899;-83
2023/07/12 00:55:58;;;;;;;;;;;17.80;99.90;;;;;;6279700;22;20286;-83
2023/07/12 00:58:25;;;;;;;;;;;17.70;99.90;;;;;;6279536;22;19945;-83
2023/07/12 01:00:52;;;;;;;;;;;17.70;99.90;;;;;;6279675;22;20325;-83
2023/07/12 01:03:18;;;;;;;;;;;17.70;99.90;;;;;;6279705;22;19945;-83
2023/07/12 01:05:45;;;;;;;;;;;17.60;99.90;;;;;;6253162;22;19907;-83
2023/07/12 01:08:14;;;;;;;;;;;17.60;99.90;;;;;;6254230;22;20319;-83
2023/07/12 01:10:39;;;;;;;;;;;17.50;99.90;;;;;;6279104;22;19907;-83
2023/07/12 01:13:05;;;;;;;;;;;17.50;99.90;;;;;;6279658;22;20032;-83
2023/07/12 01:15:32;;;;;;;;;;;17.50;99.90;;;;;;6253831;22;19907;-83
2023/07/12 01:18:28;;;;;;;;;;;17.50;99.90;;;;;;6253903;22;19910;-83
2023/07/12 01:21:24;;;;;;;;;;;17.50;99.90;;;;;;6279340;22;19903;-83
2023/07/12 01:23:50;;;;;;;;;;;17.50;99.90;;;;;;6266295;22;19998;-83
2023/07/12 01:26:16;;;;;;;;;;;17.50;99.90;;;;;;6305119;22;20310;-83
2023/07/12 01:28:44;;;;;;;;;;;17.50;99.90;;;;;;6306895;22;19910;-83
2023/07/12 01:31:10;;;;;;;;;;;17.50;99.90;;;;;;6304821;22;19906;-82
2023/07/12 01:33:36;;;;;;;;;;;17.50;99.90;;;;;;6253811;22;19929;-83
2023/07/12 01:36:03;;;;;;;;;;;17.50;99.90;;;;;;6279488;22;19913;-83
2023/07/12 01:38:28;;;;;;;;;;;17.50;99.90;;;;;;6279724;22;19942;-83
2023/07/12 01:40:55;;;;;;;;;;;17.40;99.90;;;;;;6254195;22;19903;-84
2023/07/12 01:43:21;;;;;;;;;;;17.50;99.90;;;;;;6279467;22;19914;-83
2023/07/12 01:46:06;;;;;;;;;;;17.50;99.90;;;;;;6279533;22;19929;-83
2023/07/12 01:48:32;;;;;;;;;;;17.50;99.90;;;;;;6279493;22;19903;-84
2023/07/12 01:50:59;;;;;;;;;;;17.50;99.90;;;;;;6280617;22;19973;-83
2023/07/12 01:53:25;;;;;;;;;;;17.50;99.90;;;;;;6255663;22;19903;-84
2023/07/12 01:55:53;;;;;;;;;;;17.50;99.90;;;;;;6281589;22;20573;-84
2023/07/12 01:58:19;;;;;;;;;;;17.60;99.90;;;;;;6256032;22;19903;-83
2023/07/12 02:00:45;;;;;;;;;;;17.60;99.90;;;;;;6306752;22;19909;-84
2023/07/12 02:03:11;;;;;;;;;;;17.60;99.90;;;;;;6280649;22;20309;-83
2023/07/12 02:05:37;;;;;;;;;;;17.50;99.90;;;;;;6255110;22;20277;-83
2023/07/12 02:08:04;;;;;;;;;;;17.50;99.90;;;;;;6307054;22;20311;-83
2023/07/12 02:10:29;;;;;;;;;;;17.50;99.90;;;;;;6281229;22;19978;-83
2023/07/12 02:12:55;;;;;;;;;;;17.50;99.90;;;;;;6281262;22;20311;-83
2023/07/12 02:15:22;;;;;;;;;;;17.40;99.90;;;;;;6280698;22;19903;-83
2023/07/12 02:17:47;;;;;;;;;;;17.40;99.90;;;;;;6281391;22;19903;-83
2023/07/12 02:20:14;;;;;;;;;;;17.30;99.90;;;;;;6281014;22;19948;-82
2023/07/12 02:22:43;;;;;;;;;;;17.30;99.90;;;;;;6280812;22;20510;-83
2023/07/12 02:25:09;;;;;;;;;;;17.30;99.90;;;;;;6306714;22;19985;-83
2023/07/12 02:27:35;;;;;;;;;;;17.30;99.90;;;;;;6281238;22;20298;-84
2023/07/12 02:30:01;;;;;;;;;;;17.30;99.90;;;;;;6280806;22;19903;-83
2023/07/12 02:32:27;;;;;;;;;;;17.20;99.90;;;;;;6306767;22;19982;-83
2023/07/12 02:34:53;;;;;;;;;;;17.20;99.90;;;;;;6255065;22;19899;-83
2023/07/12 02:37:19;;;;;;;;;;;17.20;99.90;;;;;;6308521;22;19910;-83
2023/07/12 02:39:45;;;;;;;;;;;17.30;99.90;;;;;;6254862;22;20468;-84
2023/07/12 02:42:11;;;;;;;;;;;17.30;99.90;;;;;;6255873;22;19907;-84
2023/07/12 02:44:40;;;;;;;;;;;17.30;99.90;;;;;;6281083;22;20014;-84
2023/07/12 02:47:06;;;;;;;;;;;17.30;99.90;;;;;;6255582;22;19948;-84
2023/07/12 02:49:32;;;;;;;;;;;17.30;99.90;;;;;;6255252;22;19911;-83
2023/07/12 02:51:58;;;;;;;;;;;17.20;99.90;;;;;;6255212;22;19983;-83
2023/07/12 02:54:42;;;;;;;;;;;17.30;99.90;;;;;;6255232;22;20215;-83
2023/07/12 02:57:09;;;;;;;;;;;17.30;99.90;;;;;;6280966;22;19974;-83
2023/07/12 02:59:34;;;;;;;;;;;17.30;99.90;;;;;;6306189;22;19903;-83
2023/07/12 03:02:03;;;;;;;;;;;17.30;99.90;;;;;;6254427;22;19909;-84
2023/07/12 03:04:28;;;;;;;;;;;17.20;99.90;;;;;;6306335;22;19906;-83
2023/07/12 03:06:54;;;;;;;;;;;17.30;99.90;;;;;;6280926;22;20319;-83
2023/07/12 03:09:20;;;;;;;;;;;17.20;99.90;;;;;;6255198;22;19914;-83
2023/07/12 03:11:47;;;;;;;;;;;17.20;99.90;;;;;;6255203;22;19903;-82
2023/07/12 03:14:16;;;;;;;;;;;17.20;99.90;;;;;;6280836;22;19902;-83
2023/07/12 03:16:42;;;;;;;;;;;17.20;99.90;;;;;;6255168;22;20370;-83
2023/07/12 03:19:07;;;;;;;;;;;17.20;99.90;;;;;;6254914;22;19930;-83
2023/07/12 03:21:33;;;;;;;;;;;17.20;99.90;;;;;;6280184;22;20519;-84
2023/07/12 03:23:59;;;;;;;;;;;17.20;99.90;;;;;;6280268;22;19955;-84
2023/07/12 03:26:24;;;;;;;;;;;17.20;99.90;;;;;;6279510;22;20482;-83
2023/07/12 03:28:50;;;;;;;;;;;17.20;99.90;;;;;;6280180;22;19906;-83
2023/07/12 03:31:16;;;;;;;;;;;17.20;99.90;;;;;;6305783;22;19927;-83
2023/07/12 03:33:43;;;;;;;;;;;17.20;99.90;;;;;;6308296;22;19926;-85
2023/07/12 03:36:09;;;;;;;;;;;17.10;99.90;;;;;;6281462;22;19914;-85
2023/07/12 03:38:53;;;;;;;;;;;17.10;99.90;;;;;;6255381;22;19903;-86
2023/07/12 03:41:20;;;;;;;;;;;17.20;99.90;;;;;;6255011;22;19936;-85
2023/07/12 03:43:46;;;;;;;;;;;17.20;99.90;;;;;;6280682;22;19906;-85
2023/07/12 03:46:12;;;;;;;;;;;17.20;99.90;;;;;;6280839;22;19903;-86
2023/07/12 03:48:38;;;;;;;;;;;17.20;99.90;;;;;;6255383;22;20554;-84
2023/07/12 03:51:03;;;;;;;;;;;17.20;99.90;;;;;;6255261;22;20011;-85
2023/07/12 03:53:29;;;;;;;;;;;17.20;99.90;;;;;;6281259;22;19903;-86
2023/07/12 03:55:57;;;;;;;;;;;17.30;99.90;;;;;;6255649;22;20227;-85
2023/07/12 03:58:24;;;;;;;;;;;17.20;99.90;;;;;;6308213;22;20568;-85
2023/07/12 04:00:56;;;;;;;;;;;17.30;99.90;;;;;;6255104;22;20333;-85
2023/07/12 04:03:21;;;;;;;;;;;17.20;99.90;;;;;;6255153;22;19914;-85
2023/07/12 04:05:51;;;;;;;;;;;17.20;99.90;;;;;;6255394;22;19903;-86
2023/07/12 04:08:17;;;;;;;;;;;17.20;99.90;;;;;;6280912;22;20242;-86
2023/07/12 04:10:43;;;;;;;;;;;17.20;99.90;;;;;;6280724;22;19902;-85
2023/07/12 04:13:09;;;;;;;;;;;17.20;99.90;;;;;;6254730;22;19910;-85
2023/07/12 04:15:35;;;;;;;;;;;17.20;99.90;;;;;;6280769;22;19956;-86
2023/07/12 04:18:02;;;;;;;;;;;17.20;99.90;;;;;;6255265;22;19909;-85
2023/07/12 04:20:27;;;;;;;;;;;17.20;99.90;;;;;;6254960;22;19907;-85
2023/07/12 04:22:53;;;;;;;;;;;17.20;99.90;;;;;;6255147;22;19910;-85
2023/07/12 04:25:20;;;;;;;;;;;17.30;99.90;;;;;;6306554;22;19902;-85
2023/07/12 04:27:45;;;;;;;;;;;17.30;99.90;;;;;;6255320;22;20329;-85
2023/07/12 04:30:12;;;;;;;;;;;17.30;99.90;;;;;;6254985;22;19945;-85
2023/07/12 04:32:40;;;;;;;;;;;17.40;99.90;;;;;;6254912;22;19903;-85
2023/07/12 04:35:05;;;;;;;;;;;17.50;99.90;;;;;;6254716;22;20345;-85
2023/07/12 04:37:31;;;;;;;;;;;17.40;99.90;;;;;;6280342;22;19903;-85
2023/07/12 04:39:57;;;;;;;;;;;17.50;99.90;;;;;;6280107;22;20028;-86
2023/07/12 04:42:23;;;;;;;;;;;17.50;99.90;;;;;;6254957;22;19903;-85
2023/07/12 04:44:49;;;;;;;;;;;17.60;99.90;;;;;;6280490;22;20203;-85
2023/07/12 04:47:15;;;;;;;;;;;17.80;99.90;;;;;;6254915;22;19910;-85
2023/07/12 04:49:41;;;;;;;;;;;17.90;99.90;;;;;;6280319;22;19906;-86
2023/07/12 04:52:07;;;;;;;;;;;18.00;99.90;;;;;;6280371;22;20243;-86
2023/07/12 04:54:33;;;;;;;;;;;18.00;99.90;;;;;;6280287;22;19932;-85
2023/07/12 04:56:59;;;;;;;;;;;18.00;99.90;;;;;;6254396;22;20336;-84
2023/07/12 04:59:25;;;;;;;;;;;18.00;99.90;;;;;;6280342;22;19911;-85
2023/07/12 05:02:18;;;;;;;;;;;18.00;99.90;;;;;;6254940;22;19909;-85
2023/07/12 05:04:44;;;;;;;;;;;18.00;99.90;;;;;;6280409;22;19942;-85
2023/07/12 05:07:10;;;;;;;;;;;18.10;99.90;;;;;;6280981;22;20211;-86
2023/07/12 05:09:36;;;;;;;;;;;18.10;99.90;;;;;;6255071;22;19903;-85
2023/07/12 05:12:02;;;;;;;;;;;18.20;99.90;;;;;;6255094;22;20322;-85
2023/07/12 05:14:28;;;;;;;;;;;18.30;99.90;;;;;;6255189;22;19903;-86
2023/07/12 05:16:54;;;;;;;;;;;18.40;99.90;;;;;;6306316;22;19903;-86
2023/07/12 05:19:19;;;;;;;;;;;18.50;99.90;;;;;;6280817;22;19909;-85
2023/07/12 05:21:45;;;;;;;;;;;18.60;99.90;;;;;;6254576;22;19917;-85
2023/07/12 05:24:11;;;;;;;;;;;18.60;99.90;;;;;;6308952;22;20307;-86
2023/07/12 05:27:03;;;;;;;;;;;18.70;99.90;;;;;;6257212;22;19959;-85
2023/07/12 05:29:28;;;;;;;;;;;18.80;99.90;;;;;;6308594;22;19948;-85
2023/07/12 05:31:55;;;;;;;;;;;18.80;99.90;;;;;;6282774;22;20306;-85
2023/07/12 05:34:21;;;;;;;;;;;18.80;99.90;;;;;;6282808;22;19903;-85
2023/07/12 05:36:47;;;;;;;;;;;18.90;99.90;;;;;;6256782;22;20241;-85
2023/07/12 05:39:12;;;;;;;;;;;19.10;99.90;;;;;;6282198;22;19910;-86
2023/07/12 05:41:38;;;;;;;;;;;19.20;99.90;;;;;;6256751;22;19910;-86
2023/07/12 05:44:04;;;;;;;;;;;19.10;99.90;;;;;;6282492;22;19942;-86
2023/07/12 05:46:30;;;;;;;;;;;19.20;99.90;;;;;;6256422;22;19949;-86
2023/07/12 05:48:55;;;;;;;;;;;19.10;99.90;;;;;;6256731;22;19941;-86
2023/07/12 05:51:21;;;;;;;;;;;19.20;99.90;;;;;;6282062;22;19902;-85
2023/07/12 05:53:47;;;;;;;;;;;19.10;99.90;;;;;;6281823;22;19925;-86
2023/07/12 05:56:12;;;;;;;;;;;19.10;99.90;;;;;;6308402;22;19903;-85
2023/07/12 05:58:38;;;;;;;;;;;19.10;99.90;;;;;;6256250;22;19910;-86
2023/07/12 06:01:17;;;;;;;;;;;19.10;99.90;;;;;;6281670;22;19903;-85
2023/07/12 06:03:43;;;;;;;;;;;19.10;99.90;;;;;;6281627;22;20234;-85
2023/07/12 06:06:45;;;;;;;;;;;19.10;99.90;;;;;;6256171;22;19913;-85
2023/07/12 06:09:12;;;;;;;;;;;19.00;99.90;;;;;;6307100;22;19910;-86
2023/07/12 06:11:38;;;;;;;;;;;19.10;99.90;;;;;;6281798;22;19903;-86
2023/07/12 06:14:04;;;;;;;;;;;19.20;99.90;;;;;;6256429;22;19902;-85
2023/07/12 06:16:30;;;;;;;;;;;19.20;99.90;;;;;;6307435;22;19907;-86
2023/07/12 06:18:55;;;;;;;;;;;19.10;99.90;;;;;;6307295;22;19909;-86
2023/07/12 06:21:21;;;;;;;;;;;19.20;99.90;;;;;;6255867;22;19941;-85
2023/07/12 06:23:47;;;;;;;;;;;19.20;99.90;;;;;;6307398;22;19989;-86
2023/07/12 06:26:12;;;;;;;;;;;19.20;99.90;;;;;;6308792;22;19963;-85
2023/07/12 06:28:38;;;;;;;;;;;19.20;99.90;;;;;;6281746;22;19902;-85
2023/07/12 06:31:05;;;;;;;;;;;19.20;99.90;;;;;;6256185;22;20219;-86
2023/07/12 06:33:31;;;;;;;;;;;19.30;99.90;;;;;;6255108;22;20314;-85
2023/07/12 06:35:57;;;;;;;;;;;19.20;99.90;;;;;;6281157;22;19914;-87
2023/07/12 06:38:22;;;;;;;;;;;19.20;99.90;;;;;;6281237;22;19926;-85
2023/07/12 06:40:48;;;;;;;;;;;19.10;99.90;;;;;;6255696;22;19902;-86
2023/07/12 06:43:14;;;;;;;;;;;19.20;99.90;;;;;;6255832;22;19907;-86
2023/07/12 06:45:43;;;;;;;;;;;19.20;99.90;;;;;;6281331;22;19903;-86
2023/07/12 06:48:08;;;;;;;;;;;19.20;99.90;;;;;;6255376;22;19911;-86
2023/07/12 06:50:34;;;;;;;;;;;19.20;99.90;;;;;;6255517;22;20214;-86
2023/07/12 06:53:00;;;;;;;;;;;19.20;99.90;;;;;;6255357;22;19907;-86
2023/07/12 06:55:25;;;;;;;;;;;19.30;99.90;;;;;;6255233;22;19906;-85
2023/07/12 06:57:51;;;;;;;;;;;19.30;99.90;;;;;;6255311;22;19952;-86
2023/07/12 07:00:17;;;;;;;;;;;19.30;99.90;;;;;;6255588;22;19907;-88
2023/07/12 07:02:43;;;;;;;;;;;19.40;99.90;;;;;;6255681;22;19910;-86
2023/07/12 07:05:08;;;;;;;;;;;19.50;99.90;;;;;;6280430;22;19907;-86
2023/07/12 07:07:34;;;;;;;;;;;19.50;99.90;;;;;;6255151;22;19925;-86
2023/07/12 07:10:00;;;;;;;;;;;19.50;99.90;;;;;;6280685;22;19914;-86
2023/07/12 07:12:25;;;;;;;;;;;19.80;99.90;;;;;;6307116;22;19907;-86
2023/07/12 07:14:52;;;;;;;;;;;20.00;99.90;;;;;;6255761;22;19946;-86
2023/07/12 07:17:17;;;;;;;;;;;20.20;99.90;;;;;;6280475;22;19956;-86
2023/07/12 07:19:43;;;;;;;;;;;20.20;99.90;;;;;;6281149;22;19903;-86
2023/07/12 07:22:09;;;;;;;;;;;20.40;99.90;;;;;;6255234;22;19913;-87
2023/07/12 07:24:34;;;;;;;;;;;20.50;99.90;;;;;;6254983;22;19907;-87
2023/07/12 07:27:00;;;;;;;;;;;20.50;99.90;;;;;;6280673;22;20341;-87
2023/07/12 07:29:26;;;;;;;;;;;20.70;99.90;;;;;;6255095;22;19910;-87
2023/07/12 07:31:51;;;;;;;;;;;20.90;99.90;;;;;;6280294;22;19903;-86
2023/07/12 07:34:17;;;;;;;;;;;21.00;99.90;;;;;;6254898;22;19905;-85
2023/07/12 07:36:49;;;;;;;;;;;21.10;99.90;;;;;;6254905;22;19977;-87
2023/07/12 07:39:15;;;;;;;;;;;21.20;99.90;;;;;;6255196;22;19985;-87
2023/07/12 07:41:40;;;;;;;;;;;21.20;99.90;;;;;;6254470;22;19961;-87
2023/07/12 07:44:06;;;;;;;;;;;21.10;99.90;;;;;;6280241;22;20429;-87
2023/07/12 07:46:32;;;;;;;;;;;21.00;99.90;;;;;;6254741;22;19973;-86
2023/07/12 07:48:58;;;;;;;;;;;21.00;99.90;;;;;;6280300;22;20283;-87
2023/07/12 07:51:25;;;;;;;;;;;21.20;99.90;;;;;;6254772;22;19903;-86
2023/07/12 07:53:52;;;;;;;;;;;21.20;99.90;;;;;;6306529;22;19952;-86
2023/07/12 07:56:17;;;;;;;;;;;21.20;99.90;;;;;;6280605;22;19982;-86
2023/07/12 07:58:49;;;;;;;;;;;21.70;99.90;;;;;;6255026;22;19930;-86
2023/07/12 08:01:15;;;;;;;;;;;22.00;99.90;;;;;;6280749;22;19911;-86
2023/07/12 08:03:40;;;;;;;;;;;22.40;99.90;;;;;;6254142;22;19942;-86
2023/07/12 08:06:06;;;;;;;;;;;24.20;99.90;;;;;;6253970;22;20239;-86
2023/07/12 08:08:33;;;;;;;;;;;25.10;99.90;;;;;;6305908;22;19947;-87
2023/07/12 08:10:59;;;;;;;;;;;25.00;99.90;;;;;;6305501;22;20231;-86
2023/07/12 08:13:43;;;;;;;;;;;25.20;99.90;;;;;;6307073;22;19903;-86
2023/07/12 08:16:09;;;;;;;;;;;25.40;99.90;;;;;;6280006;22;19906;-86
2023/07/12 08:18:34;;;;;;;;;;;25.60;99.90;;;;;;6307445;22;19905;-87
2023/07/12 08:21:00;;;;;;;;;;;26.10;99.90;;;;;;6279821;22;19929;-86
2023/07/12 08:23:28;;;;;;;;;;;26.00;99.90;;;;;;6279597;22;20658;-86
2023/07/12 08:25:54;;;;;;;;;;;26.80;99.90;;;;;;6279965;22;19913;-86
2023/07/12 08:28:20;;;;;;;;;;;26.60;99.90;;;;;;6305155;22;19989;-86
2023/07/12 08:30:46;;;;;;;;;;;25.80;99.90;;;;;;6254078;22;19910;-86
2023/07/12 08:33:12;;;;;;;;;;;25.10;99.90;;;;;;6305679;22;19911;-87
2023/07/12 08:39:06;;;;;;;;;;;25.70;99.90;;;;;;6307993;22;19941;-86
2023/07/12 08:41:32;;;;;;;;;;;27.00;99.90;;;;;;6279902;22;19903;-87
2023/07/12 08:43:58;;;;;;;;;;;28.00;99.90;;;;;;6254508;22;19907;-87
2023/07/12 08:46:25;;;;;;;;;;;28.00;99.90;;;;;;6254383;22;19910;-86
2023/07/12 08:48:52;;;;;;;;;;;27.10;99.90;;;;;;6279930;22;19984;-86
2023/07/12 08:51:23;;;;;;;;;;;25.90;99.90;;;;;;6279606;22;19985;-86
2023/07/12 08:53:49;;;;;;;;;;;25.30;99.90;;;;;;6305079;22;19976;-87
2023/07/12 08:56:15;;;;;;;;;;;26.00;99.90;;;;;;6279652;22;19903;-86
2023/07/12 08:58:43;;;;;;;;;;;27.10;99.90;;;;;;6254850;22;19929;-87
2023/07/12 09:01:15;;;;;;;;;;;27.10;99.90;;;;;;6255739;22;19977;-86
2023/07/12 09:03:41;;;;;;;;;;;26.10;99.90;;;;;;6255808;22;19907;-87
2023/07/12 09:06:14;;;;;;;;;;;26.00;99.90;;;;;;6307349;22;19906;-87
2023/07/12 09:08:42;;;;;;;;;;;27.10;99.90;;;;;;6306959;22;19930;-87
2023/07/12 09:11:15;;;;;;;;;;;28.10;99.90;;;;;;6255675;22;20020;-87
2023/07/12 09:13:41;;;;;;;;;;;27.80;99.90;;;;;;6256522;22;19938;-87
2023/07/12 09:16:39;;;;;;;;;;;27.70;99.90;;;;;;6307492;22;19953;-86
2023/07/12 09:19:14;;;;;;;;;;;27.90;99.90;;;;;;6248364;22;19909;-87
2023/07/12 09:21:40;;;;;;;;;;;27.90;99.90;;;;;;6307293;22;19910;-87
2023/07/12 09:24:13;;;;;;;;;;;28.20;99.90;;;;;;6281681;22;19903;-87
2023/07/12 09:27:00;;;;;;;;;;;28.50;99.90;;;;;;6256618;22;19902;-87
2023/07/12 09:29:26;;;;;;;;;;;28.60;99.90;;;;;;6307524;22;19913;-84
2023/07/12 09:31:57;;;;;;;;;;;30.20;99.90;;;;;;6256044;22;19978;-84
2023/07/12 09:34:34;;;;;;;;;;;30.00;99.90;;;;;;6308036;22;19902;-85
2023/07/12 09:37:00;;;;;;;;;;;30.10;99.90;;;;;;6282618;22;20293;-87
2023/07/12 09:39:26;;;;;;;;;;;29.30;99.90;;;;;;6256477;22;19941;-86
2023/07/12 09:41:59;;;;;;;;;;;28.20;99.90;;;;;;6255728;22;19902;-87
2023/07/12 09:44:30;;;;;;;;;;;27.70;99.90;;;;;;6256326;22;20529;-86
2023/07/12 09:47:20;;;;;;;;;;;27.80;99.90;;;;;;6281762;22;19903;-87
2023/07/12 09:50:12;;;;;;;;;;;27.10;99.90;;;;;;6281652;22;19949;-85
2023/07/12 09:52:51;;;;;;;;;;;27.40;99.90;;;;;;6257997;22;19987;-88
2023/07/12 09:55:29;;;;;;;;;;;27.70;99.90;;;;;;6281871;22;19991;-87
2023/07/12 09:57:55;;;;;;;;;;;27.50;99.90;;;;;;6307935;22;19903;-87
2023/07/12 10:00:29;;;;;;;;;;;28.20;99.90;;;;;;6281479;22;19913;-85
2023/07/12 10:03:13;;;;;;;;;;;28.90;99.90;;;;;;6256029;22;20257;-88
2023/07/12 10:05:44;;;;;;;;;;;28.00;99.90;;;;;;6307085;22;19926;-87
2023/07/12 10:08:13;;;;;;;;;;;27.80;99.90;;;;;;6255823;22;19909;-87
2023/07/12 10:10:41;;;;;;;;;;;27.70;99.90;;;;;;6280483;22;19930;-88
2023/07/12 10:13:26;;;;;;;;;;;27.40;99.90;;;;;;6281465;22;19911;-88
2023/07/12 10:15:51;;;;;;;;;;;26.80;99.90;;;;;;6281480;22;19925;-86
2023/07/12 10:18:28;;;;;;;;;;;26.90;99.90;;;;;;6281397;22;19977;-87
2023/07/12 10:20:55;;;;;;;;;;;27.10;99.90;;;;;;6255819;22;19903;-87
2023/07/12 10:23:23;;;;;;;;;;;27.00;99.90;;;;;;6281004;22;19911;-87
2023/07/12 10:25:53;;;;;;;;;;;26.60;99.90;;;;;;6255748;22;20504;-87
2023/07/12 10:28:38;;;;;;;;;;;26.80;99.90;;;;;;6280927;22;19970;-87
2023/07/12 10:31:06;;;;;;;;;;;27.20;99.90;;;;;;6281365;22;19903;-84
2023/07/12 10:33:49;;;;;;;;;;;27.10;99.90;;;;;;6255894;22;19902;-83
2023/07/12 10:36:17;;;;;;;;;;;26.80;99.90;;;;;;6281334;22;20298;-87
2023/07/12 10:38:42;;;;;;;;;;;26.90;99.90;;;;;;6255904;22;19903;-87
2023/07/12 10:41:11;;;;;;;;;;;26.70;99.90;;;;;;6306935;22;19913;-87
2023/07/12 10:43:43;;;;;;;;;;;26.60;99.90;;;;;;6281082;22;19910;-86
2023/07/12 10:46:13;;;;;;;;;;;26.60;99.90;;;;;;6255978;22;19906;-87
2023/07/12 10:48:42;;;;;;;;;;;26.80;99.90;;;;;;6308422;22;20265;-88
2023/07/12 10:51:16;;;;;;;;;;;27.00;99.90;;;;;;6255272;22;19906;-87
2023/07/12 10:53:52;;;;;;;;;;;26.80;99.90;;;;;;6280425;22;19906;-87
2023/07/12 10:56:18;;;;;;;;;;;26.80;99.90;;;;;;6306449;22;20307;-87
2023/07/12 10:58:57;;;;;;;;;;;26.90;99.90;;;;;;6280767;22;19906;-87
2023/07/12 11:01:58;;;;;;;;;;;26.80;99.90;;;;;;6254838;22;19910;-87
2023/07/12 11:04:26;;;;;;;;;;;27.20;99.90;;;;;;6218039;23;19907;-87
2023/07/12 11:06:57;;;;;;;;;;;27.50;99.90;;;;;;6249087;22;19903;-86
2023/07/12 11:09:24;;;;;;;;;;;27.50;99.90;;;;;;6280440;22;20219;-87
2023/07/12 11:11:55;;;;;;;;;;;27.60;99.90;;;;;;6254658;22;19964;-86
2023/07/12 11:14:41;;;;;;;;;;;27.80;99.90;;;;;;6280143;22;19910;-87
2023/07/12 11:17:22;;;;;;;;;;;28.10;99.90;;;;;;6248244;22;20020;-87
2023/07/12 11:19:49;;;;;;;;;;;28.50;99.90;;;;;;6280407;22;19986;-86
2023/07/12 11:22:23;;;;;;;;;;;27.60;99.90;;;;;;6255061;22;19907;-88
2023/07/12 11:24:52;;;;;;;;;;;27.90;99.90;;;;;;6280518;22;20378;-86
2023/07/12 11:27:39;;;;;;;;;;;28.00;99.90;;;;;;6255072;22;20314;-87
2023/07/12 11:30:28;;;;;;;;;;;28.00;99.90;;;;;;6280595;22;19903;-88
2023/07/12 11:33:15;;;;;;;;;;;28.10;99.90;;;;;;6279945;22;19952;-87
2023/07/12 11:38:46;;;;;;;;;;;28.00;99.90;;;;;;6307855;22;20551;-87
2023/07/12 11:41:14;;;;;;;;;;;27.80;99.90;;;;;;6255155;22;20298;-86
2023/07/12 11:43:40;;;;;;;;;;;27.80;99.90;;;;;;6280440;22;20593;-86
2023/07/12 11:46:17;;;;;;;;;;;27.70;99.90;;;;;;6254747;22;19913;-86
2023/07/12 11:48:45;;;;;;;;;;;27.80;99.90;;;;;;6305869;22;19907;-87
2023/07/12 11:51:17;;;;;;;;;;;27.80;99.90;;;;;;6279639;22;20216;-87
2023/07/12 11:53:58;;;;;;;;;;;27.90;99.90;;;;;;6305782;22;20028;-87
2023/07/12 11:56:24;;;;;;;;;;;27.80;99.90;;;;;;6305865;22;19907;-84
2023/07/12 11:58:50;;;;;;;;;;;27.80;99.90;;;;;;6254356;22;19984;-86
2023/07/12 12:01:17;;;;;;;;;;;28.20;99.90;;;;;;6279769;22;19987;-86
2023/07/12 12:03:46;;;;;;;;;;;27.40;99.90;;;;;;6254997;22;20419;-86
2023/07/12 12:06:12;;;;;;;;;;;27.50;99.90;;;;;;6280157;22;19903;-86
2023/07/12 12:08:40;;;;;;;;;;;27.40;99.90;;;;;;6280185;22;19925;-87
2023/07/12 12:11:07;;;;;;;;;;;27.50;99.90;;;;;;6254483;22;19937;-87
2023/07/12 12:13:33;;;;;;;;;;;27.80;99.90;;;;;;6280596;22;20352;-86
2023/07/12 12:16:04;;;;;;;;;;;27.90;99.90;;;;;;6306254;22;19903;-86
2023/07/12 12:18:30;;;;;;;;;;;27.80;99.60;;;;;;6254958;22;19910;-86
2023/07/12 12:20:57;;;;;;;;;;;27.60;99.30;;;;;;6254164;22;20487;-86
2023/07/12 12:23:32;;;;;;;;;;;27.60;99.70;;;;;;6280031;22;19907;-86
2023/07/12 12:26:01;;;;;;;;;;;27.70;99.90;;;;;;6280311;22;19926;-86
2023/07/12 12:28:57;;;;;;;;;;;28.10;99.90;;;;;;6280186;22;19898;-86
2023/07/12 12:31:25;;;;;;;;;;;28.30;99.90;;;;;;6279920;22;20261;-87
2023/07/12 12:33:57;;;;;;;;;;;28.40;99.70;;;;;;6254207;22;20212;-87
2023/07/12 12:36:24;;;;;;;;;;;28.50;99.40;;;;;;6280279;22;19903;-87
2023/07/12 12:39:05;;;;;;;;;;;28.50;99.80;;;;;;6255088;22;20624;-86
2023/07/12 12:41:32;;;;;;;;;;;28.60;99.60;;;;;;6279888;22;19906;-87
2023/07/12 12:43:59;;;;;;;;;;;28.80;99.50;;;;;;6254151;22;19906;-86
2023/07/12 12:46:25;;;;;;;;;;;29.30;99.40;;;;;;6279374;22;19903;-86
2023/07/12 12:48:54;;;;;;;;;;;28.50;99.00;;;;;;6254367;22;19907;-85
2023/07/12 12:51:21;;;;;;;;;;;27.40;99.20;;;;;;6254520;22;19909;-87
2023/07/12 12:53:47;;;;;;;;;;;26.70;99.60;;;;;;6254444;22;19968;-86
2023/07/12 12:56:13;;;;;;;;;;;26.00;99.90;;;;;;6254623;22;20314;-87
2023/07/12 12:58:39;;;;;;;;;;;26.10;99.90;;;;;;6254365;22;19914;-86
2023/07/12 13:01:05;;;;;;;;;;;26.10;99.90;;;;;;6254712;22;20239;-87
2023/07/12 13:03:30;;;;;;;;;;;26.00;99.90;;;;;;6254351;22;19960;-86
2023/07/12 13:06:31;;;;;;;;;;;26.50;99.90;;;;;;6254603;22;19903;-87
2023/07/12 13:08:57;;;;;;;;;;;27.20;99.90;;;;;;6305689;22;19906;-87
2023/07/12 13:11:23;;;;;;;;;;;27.70;99.90;;;;;;6280147;22;20621;-88
2023/07/12 13:13:49;;;;;;;;;;;27.80;99.30;;;;;;6279740;22;19903;-86
2023/07/12 13:16:16;;;;;;;;;;;27.60;99.90;;;;;;6305367;22;19903;-85
2023/07/12 13:18:42;;;;;;;;;;;27.90;99.90;;;;;;6254622;22;19903;-86
2023/07/12 13:21:40;;;;;;;;;;;28.20;99.80;;;;;;6280151;22;19907;-86
2023/07/12 13:24:06;;;;;;;;;;;28.10;99.90;;;;;;6275752;22;20212;-86
2023/07/12 13:26:34;;;;;;;;;;;28.60;98.90;;;;;;6254701;22;20273;-86
2023/07/12 13:29:16;;;;;;;;;;;28.50;99.10;;;;;;6306157;22;19909;-83
2023/07/12 13:31:41;;;;;;;;;;;28.30;97.60;;;;;;6280733;22;19941;-83
2023/07/12 13:34:07;;;;;;;;;;;28.00;96.90;;;;;;6280187;22;19903;-86
2023/07/12 13:36:35;;;;;;;;;;;27.80;97.30;;;;;;6280614;22;20201;-87
2023/07/12 13:39:12;;;;;;;;;;;28.30;97.50;;;;;;6280344;22;19911;-86
2023/07/12 13:41:38;;;;;;;;;;;28.80;96.20;;;;;;6280507;22;19910;-86
2023/07/12 13:44:04;;;;;;;;;;;29.20;95.00;;;;;;6254938;22;19914;-86
2023/07/12 13:46:29;;;;;;;;;;;28.70;95.60;;;;;;6307416;22;19903;-87
2023/07/12 13:48:56;;;;;;;;;;;28.90;95.30;;;;;;6282328;22;20531;-86
2023/07/12 13:51:22;;;;;;;;;;;29.30;94.90;;;;;;6282252;22;19909;-87
2023/07/12 13:53:49;;;;;;;;;;;29.20;92.80;;;;;;6282275;22;20296;-86
2023/07/12 13:56:15;;;;;;;;;;;28.80;92.50;;;;;;6256226;22;19899;-86
2023/07/12 13:58:41;;;;;;;;;;;28.90;92.70;;;;;;6282248;22;20330;-87
2023/07/12 14:01:08;;;;;;;;;;;29.10;92.40;;;;;;6256361;22;19930;-83
2023/07/12 14:03:34;;;;;;;;;;;28.80;91.20;;;;;;6306871;22;19907;-85
2023/07/12 14:06:00;;;;;;;;;;;28.80;92.50;;;;;;6308420;22;19909;-84
2023/07/12 14:08:27;;;;;;;;;;;29.40;92.40;;;;;;6308254;22;19902;-84
2023/07/12 14:10:52;;;;;;;;;;;29.60;92.40;;;;;;6256146;22;20380;-84
2023/07/12 14:13:22;;;;;;;;;;;29.90;92.00;;;;;;6256672;22;19903;-84
2023/07/12 14:15:48;;;;;;;;;;;29.70;91.40;;;;;;6307103;22;19906;-87
2023/07/12 14:18:13;;;;;;;;;;;30.00;91.70;;;;;;6256264;22;19899;-86
2023/07/12 14:20:39;;;;;;;;;;;30.10;91.90;;;;;;6307873;22;19903;-86
2023/07/12 14:23:11;;;;;;;;;;;30.10;91.00;;;;;;6280945;22;19914;-83
2023/07/12 14:25:37;;;;;;;;;;;29.50;91.60;;;;;;6307506;22;19906;-85
2023/07/12 14:28:04;;;;;;;;;;;28.90;92.20;;;;;;6256101;22;19986;-85
2023/07/12 14:33:58;;;;;;;;;;;28.40;93.30;;;;;;6309471;22;19918;-83
2023/07/12 14:36:43;;;;;;;;;;;28.20;93.20;;;;;;6281475;22;19981;-83